Terminal Aerodrome Forecast
Issued by NWS

Home | Current Version | Previous Version | Text Only | Print | Product List | Glossary On
Versions: 1 2 3 4 5 6 7 8 9 10 11 12 13 14 15 16 17 18 19 20 21 22 23 24
972
FTUS44 KOUN 102325
TAFCSM
TAF
KCSM 102325Z 1100/1124 25011KT P6SM SKC
     FM110400 35012KT P6SM SCT250
     FM112100 02007KT P6SM SKC=

USA.gov is the U.S. government's official web portal to all federal, state and local government web resources and services.